Time;durP1;ratioP1;P1;durP2;ratioP2;P2;SDS_P1;SDS_P2;PMS_P1;PMS_P2;Temp;Humidity;BMP_temperature;BMP_pressure;BME280_temperature;BME280_humidity;BME280_pressure;Samples;Min_cycle;Max_cycle;Signal;HPM_P1;HPM_P2
2021/12/16 00:01:51;;;;;;;75.50;32.65;;;;;;;5.93;100.00;99990.40;2129030;84;20498;-79
2021/12/16 00:08:15;;;;;;;55.00;26.75;;;;;;;5.97;100.00;99988.41;2128979;84;20978;-80
2021/12/16 00:33:45;;;;;;;51.42;21.87;;;;;;;5.94;100.00;99987.33;2100255;85;21176;-80
2021/12/16 00:36:45;;;;;;;60.43;25.57;;;;;;;5.97;100.00;99988.41;2100513;85;21175;-81
2021/12/16 00:39:47;;;;;;;53.90;21.80;;;;;;;5.95;100.00;99989.01;2100548;85;21599;-80
2021/12/16 00:42:55;;;;;;;58.95;23.83;;;;;;;5.95;100.00;99982.03;2100700;85;21041;-80
2021/12/16 00:55:52;;;;;;;52.45;21.93;;;;;;;6.01;100.00;99987.69;2087939;85;21025;-80
2021/12/16 00:58:34;;;;;;;52.15;21.93;;;;;;;6.00;100.00;99989.46;2081234;85;21696;-80
2021/12/16 01:01:41;;;;;;;45.80;20.97;;;;;;;6.04;100.00;99987.47;2087657;85;21105;-80
2021/12/16 01:34:27;;;;;;;58.23;24.02;;;;;;;6.05;100.00;99960.05;2155314;83;21048;-80
2021/12/16 01:50:08;;;;;;;57.05;24.75;;;;;;;6.10;100.00;99948.78;2155933;83;21500;-80
2021/12/16 01:53:19;;;;;;;62.15;26.07;;;;;;;6.11;100.00;99948.31;2155478;83;21043;-79
2021/12/16 01:56:25;;;;;;;65.78;26.05;;;;;;;6.10;100.00;99943.59;2153105;83;21543;-80
2021/12/16 01:59:18;;;;;;;60.67;24.95;;;;;;;6.11;100.00;99945.71;2152548;82;21594;-79
2021/12/16 02:02:26;;;;;;;58.08;23.67;;;;;;;6.11;100.00;99943.11;2154801;83;21043;-80
2021/12/16 02:08:26;;;;;;;55.20;24.15;;;;;;;6.13;100.00;99932.14;2154593;83;20989;-79
2021/12/16 02:37:19;;;;;;;56.13;23.92;;;;;;;6.19;100.00;99929.03;2137756;83;21072;-80
2021/12/16 02:40:18;;;;;;;51.77;23.40;;;;;;;6.16;100.00;99928.81;2137959;83;21025;-80
2021/12/16 02:43:38;;;;;;;49.58;22.60;;;;;;;6.16;100.00;99939.69;2137982;83;21076;-80
2021/12/16 02:49:43;;;;;;;49.95;20.25;;;;;;;6.20;100.00;99931.50;2138226;83;21607;-79
2021/12/16 02:52:43;;;;;;;54.13;22.35;;;;;;;6.24;100.00;99932.93;2137788;83;21051;-79
2021/12/16 02:55:46;;;;;;;51.80;22.20;;;;;;;6.22;100.00;99932.23;2137782;83;21517;-79
2021/12/16 02:58:47;;;;;;;50.90;23.87;;;;;;;6.22;100.00;99941.34;2138088;83;21584;-79
2021/12/16 03:01:48;;;;;;;45.75;22.15;;;;;;;6.26;100.00;99938.83;2137930;83;21024;-79
2021/12/16 03:04:49;;;;;;;42.95;20.27;;;;;;;6.27;100.00;99931.85;2137926;83;21595;-79
2021/12/16 03:07:50;;;;;;;42.50;19.40;;;;;;;6.28;100.00;99933.50;2137724;83;20957;-79
2021/12/16 03:17:19;;;;;;;42.20;19.40;;;;;;;6.30;100.00;99929.47;2137925;83;20985;-79
2021/12/16 03:20:24;;;;;;;46.63;20.50;;;;;;;6.30;100.00;99929.00;2136905;83;21068;-79
2021/12/16 03:23:28;;;;;;;40.03;18.15;;;;;;;6.33;100.00;99927.95;2136287;83;21577;-80
2021/12/16 03:39:06;;;;;;;44.23;19.32;;;;;;;6.28;100.00;99950.41;2137751;83;21097;-79
2021/12/16 03:42:06;;;;;;;40.48;18.67;;;;;;;6.23;100.00;99950.79;2137993;83;21048;-80
2021/12/16 03:45:07;;;;;;;46.05;20.08;;;;;;;6.24;100.00;99950.31;2137818;83;20980;-80
2021/12/16 03:48:08;;;;;;;43.95;18.57;;;;;;;6.30;100.00;99946.38;2137872;83;20973;-80
2021/12/16 03:51:09;;;;;;;46.68;21.02;;;;;;;6.26;100.00;99943.20;2137976;83;20973;-80
2021/12/16 03:54:10;;;;;;;41.35;19.75;;;;;;;6.25;100.00;99936.36;2137708;83;20985;-79
2021/12/16 03:57:11;;;;;;;39.42;18.52;;;;;;;6.28;100.00;99938.23;2138015;83;21507;-79
2021/12/16 04:00:12;;;;;;;41.48;18.70;;;;;;;6.30;100.00;99938.58;2137938;83;21025;-79
2021/12/16 04:03:12;;;;;;;34.88;18.55;;;;;;;6.30;100.00;99937.28;2138507;83;21008;-81
2021/12/16 04:06:13;;;;;;;40.20;17.67;;;;;;;6.33;100.00;99936.58;2137681;83;21004;-80
2021/12/16 04:09:14;;;;;;;43.05;20.57;;;;;;;6.35;100.00;99934.67;2140234;82;21421;-82
2021/12/16 04:12:19;;;;;;;50.25;21.37;;;;;;;6.38;100.00;99936.19;2167603;82;21048;-77
2021/12/16 04:15:18;;;;;;;40.30;17.85;;;;;;;6.38;100.00;99937.48;2167523;82;21433;-78
2021/12/16 04:18:18;;;;;;;44.18;19.85;;;;;;;6.38;100.00;99939.62;2167696;82;21349;-77
2021/12/16 04:21:21;;;;;;;46.23;19.90;;;;;;;6.38;100.00;99934.41;2167791;82;21068;-80
2021/12/16 04:24:22;;;;;;;44.88;19.15;;;;;;;6.35;100.00;99941.17;2167625;82;20992;-80
2021/12/16 04:27:22;;;;;;;43.58;18.70;;;;;;;6.35;100.00;99938.57;2167658;82;21012;-79
2021/12/16 04:30:23;;;;;;;37.50;18.98;;;;;;;6.36;100.00;99940.22;2167682;82;20984;-80
2021/12/16 04:33:24;;;;;;;43.65;20.40;;;;;;;6.34;100.00;99943.91;2167720;82;21021;-81
2021/12/16 04:36:25;;;;;;;42.80;19.77;;;;;;;6.36;100.00;99947.20;2167705;82;21050;-81
2021/12/16 04:39:26;;;;;;;48.95;22.32;;;;;;;6.34;100.00;99943.42;2167768;82;21499;-80
2021/12/16 04:42:27;;;;;;;42.83;21.35;;;;;;;6.39;100.00;99946.47;2167911;82;21059;-81
2021/12/16 04:45:27;;;;;;;44.25;21.82;;;;;;;6.40;100.00;99956.40;2167610;82;21048;-81
2021/12/16 04:48:28;;;;;;;39.92;20.97;;;;;;;6.43;100.00;99953.09;2167682;82;20957;-82
2021/12/16 04:51:29;;;;;;;43.15;22.40;;;;;;;6.47;100.00;99946.69;2167768;82;21547;-81
2021/12/16 04:54:30;;;;;;;40.73;20.92;;;;;;;6.50;100.00;99957.34;2167520;82;20988;-79
2021/12/16 04:57:31;;;;;;;37.08;19.17;;;;;;;6.48;100.00;99953.53;2167651;82;21079;-80
2021/12/16 05:00:32;;;;;;;40.88;21.12;;;;;;;6.50;100.00;99949.53;2167764;82;20961;-80
2021/12/16 05:03:32;;;;;;;36.88;19.77;;;;;;;6.49;100.00;99940.91;2167651;82;21039;-80
2021/12/16 05:06:33;;;;;;;47.30;20.97;;;;;;;6.48;100.00;99947.51;2167569;82;21043;-79
2021/12/16 05:12:41;;;;;;;44.15;21.15;;;;;;;6.49;100.00;99950.46;2174946;82;21059;-84
2021/12/16 05:15:42;;;;;;;40.33;20.77;;;;;;;6.47;100.00;99945.86;2174999;82;20988;-79
2021/12/16 05:18:43;;;;;;;35.60;19.35;;;;;;;6.47;100.00;99946.69;2174893;82;21050;-80
2021/12/16 05:21:51;;;;;;;39.55;21.23;;;;;;;6.49;100.00;99950.02;2175040;82;20972;-80
2021/12/16 05:24:47;;;;;;;40.40;23.20;;;;;;;6.46;100.00;99947.64;2174854;81;21522;-80
2021/12/16 05:27:48;;;;;;;45.88;23.77;;;;;;;6.48;100.00;99952.23;2174838;82;21008;-80
2021/12/16 05:30:48;;;;;;;42.33;24.12;;;;;;;6.49;100.00;99943.95;2174891;82;20996;-80
2021/12/16 05:33:49;;;;;;;39.53;21.17;;;;;;;6.49;100.00;99950.02;2174969;82;21039;-82
2021/12/16 05:36:50;;;;;;;43.95;22.60;;;;;;;6.52;100.00;99955.44;2174713;82;20953;-81
2021/12/16 05:39:51;;;;;;;44.90;22.67;;;;;;;6.50;100.00;99937.83;2174880;82;21527;-81
2021/12/16 05:42:52;;;;;;;34.85;21.65;;;;;;;6.49;100.00;99937.45;2174841;82;20965;-83
2021/12/16 05:45:53;;;;;;;39.73;21.12;;;;;;;6.47;100.00;99933.67;2174789;82;21076;-81
2021/12/16 05:48:54;;;;;;;40.38;21.35;;;;;;;6.48;100.00;99930.13;2174832;81;21507;-80
2021/12/16 05:51:54;;;;;;;41.30;22.90;;;;;;;6.48;100.00;99930.13;2174964;82;21031;-81
2021/12/16 05:54:55;;;;;;;45.75;23.87;;;;;;;6.50;100.00;99942.55;2174742;82;21220;-81
2021/12/16 05:57:56;;;;;;;42.83;23.47;;;;;;;6.49;100.00;99934.41;2174912;82;21464;-81
2021/12/16 06:00:57;;;;;;;44.30;23.83;;;;;;;6.51;100.00;99940.78;2174995;82;21016;-81
2021/12/16 06:03:58;;;;;;;41.77;23.20;;;;;;;6.52;100.00;99942.42;2174732;82;20961;-80
2021/12/16 06:06:59;;;;;;;41.37;23.30;;;;;;;6.53;100.00;99936.27;2174868;82;20996;-82
2021/12/16 06:10:00;;;;;;;38.83;22.17;;;;;;;6.56;100.00;99939.91;2173923;82;21001;-81
2021/12/16 06:13:01;;;;;;;42.62;23.83;;;;;;;6.53;100.00;99937.09;2167830;82;21306;-81
2021/12/16 06:22:27;;;;;;;35.73;21.07;;;;;;;6.51;100.00;99940.78;2167658;82;20965;-81
2021/12/16 06:23:10;;;;;;;41.95;23.83;;;;;;;6.47;100.00;99939.36;2167786;82;21579;-80
2021/12/16 06:29:01;;;;;;;42.67;24.32;;;;;;;6.45;100.00;99934.28;2167350;82;21178;-81
2021/12/16 06:32:02;;;;;;;40.12;22.60;;;;;;;6.47;100.00;99936.28;2167569;82;20963;-81
2021/12/16 06:35:03;;;;;;;42.30;24.05;;;;;;;6.47;100.00;99944.08;2168014;82;20984;-81
2021/12/16 06:38:03;;;;;;;39.85;22.22;;;;;;;6.47;100.00;99945.38;2167310;82;20973;-81
2021/12/16 06:41:04;;;;;;;41.80;24.10;;;;;;;6.45;100.00;99943.39;2167504;82;20953;-81
2021/12/16 06:44:10;;;;;;;43.92;24.60;;;;;;;6.44;100.00;99943.52;2168128;82;21060;-80
2021/12/16 06:47:13;;;;;;;39.83;22.95;;;;;;;6.45;100.00;99945.98;2167329;82;21492;-79
2021/12/16 06:50:13;;;;;;;43.68;24.77;;;;;;;6.46;100.00;99935.10;2167225;82;21083;-81
2021/12/16 06:53:17;;;;;;;37.05;21.25;;;;;;;6.46;100.00;99939.83;2167493;82;21028;-81
2021/12/16 06:56:23;;;;;;;43.10;23.52;;;;;;;6.49;100.00;99952.62;2167311;82;21008;-81
2021/12/16 06:59:26;;;;;;;43.68;23.12;;;;;;;6.46;100.00;99950.72;2167184;82;21067;-81
2021/12/16 07:02:48;;;;;;;35.65;21.10;;;;;;;6.44;100.00;99953.45;2167470;82;21504;-82
2021/12/16 07:05:42;;;;;;;37.90;21.10;;;;;;;6.41;100.00;99955.48;2167256;82;21578;-81
2021/12/16 07:08:42;;;;;;;37.75;22.48;;;;;;;6.39;100.00;99951.67;2167426;82;21000;-81
2021/12/16 07:11:44;;;;;;;41.73;24.00;;;;;;;6.40;100.00;99952.05;2171462;82;21040;-81
2021/12/16 07:14:44;;;;;;;42.73;24.15;;;;;;;6.40;100.00;99949.45;2174900;82;21618;-82
2021/12/16 07:17:45;;;;;;;43.45;25.30;;;;;;;6.43;100.00;99949.67;2174614;82;20956;-82
2021/12/16 07:20:46;;;;;;;38.25;21.45;;;;;;;6.46;100.00;99952.84;2174769;82;21007;-81
2021/12/16 07:23:47;;;;;;;43.78;24.82;;;;;;;6.47;100.00;99953.66;2174643;82;21027;-80
2021/12/16 07:26:48;;;;;;;39.55;24.47;;;;;;;6.46;100.00;99956.75;2174713;82;21583;-80
2021/12/16 07:29:49;;;;;;;44.50;25.85;;;;;;;6.51;100.00;99953.79;2174889;82;20984;-80
2021/12/16 07:32:50;;;;;;;42.35;24.98;;;;;;;6.55;100.00;99947.37;2174673;82;21028;-80
2021/12/16 07:35:50;;;;;;;41.70;24.65;;;;;;;6.62;100.00;99943.33;2174783;82;20953;-81
2021/12/16 07:38:51;;;;;;;42.15;26.17;;;;;;;6.65;100.00;99946.16;2175023;82;20972;-81
2021/12/16 07:41:53;;;;;;;38.88;23.25;;;;;;;6.65;100.00;99941.77;2174787;82;21021;-80
2021/12/16 07:44:54;;;;;;;39.38;23.27;;;;;;;6.68;100.00;99942.02;2174856;82;21015;-81
2021/12/16 07:47:55;;;;;;;37.73;22.80;;;;;;;6.70;100.00;99946.14;2174931;82;21010;-81
2021/12/16 07:50:56;;;;;;;42.15;25.30;;;;;;;6.70;100.00;99940.94;2175030;82;21046;-81
2021/12/16 07:53:57;;;;;;;43.50;25.37;;;;;;;6.75;100.00;99942.67;2174991;82;21071;-82
2021/12/16 07:56:58;;;;;;;39.40;24.45;;;;;;;6.84;100.00;99942.39;2174934;82;21567;-81
2021/12/16 07:59:58;;;;;;;62.62;44.67;;;;;;;6.91;100.00;99940.95;2174975;82;21322;-81
2021/12/16 08:02:59;;;;;;;47.43;28.38;;;;;;;6.94;100.00;99945.89;2174971;82;21098;-81
2021/12/16 08:06:00;;;;;;;44.10;25.08;;;;;;;6.99;100.00;99954.64;2175013;82;21004;-81
2021/12/16 08:09:01;;;;;;;35.55;22.85;;;;;;;7.00;100.00;99949.78;2175045;82;21071;-80
2021/12/16 08:12:02;;;;;;;39.40;22.58;;;;;;;7.04;100.00;99948.12;2152609;80;21004;-81
2021/12/16 08:15:03;;;;;;;36.68;24.55;;;;;;;7.06;100.00;99940.99;2138127;83;21008;-81
2021/12/16 08:18:04;;;;;;;39.60;24.00;;;;;;;7.06;100.00;99944.08;2137917;83;20956;-80
2021/12/16 08:21:04;;;;;;;33.83;23.45;;;;;;;7.03;100.00;99943.01;2138021;83;21297;-80
2021/12/16 08:24:05;;;;;;;37.50;23.55;;;;;;;6.99;100.00;99946.36;2138160;83;21045;-81
2021/12/16 08:27:06;;;;;;;38.50;24.27;;;;;;;6.95;100.00;99948.02;2137800;83;20941;-81
2021/12/16 08:30:07;;;;;;;34.80;21.85;;;;;;;6.92;100.00;99946.50;2137906;83;21577;-82
2021/12/16 08:33:10;;;;;;;39.27;24.23;;;;;;;6.90;100.00;99951.02;2138065;83;20973;-81
2021/12/16 08:36:11;;;;;;;33.48;23.20;;;;;;;6.91;100.00;99948.76;2137893;83;21314;-81
2021/12/16 08:39:11;;;;;;;34.48;21.07;;;;;;;6.95;100.00;99949.32;2137962;83;21053;-81
2021/12/16 08:42:12;;;;;;;37.50;23.77;;;;;;;6.92;100.00;99953.48;2137817;83;21476;-81
2021/12/16 08:45:13;;;;;;;34.92;22.32;;;;;;;6.93;100.00;99961.65;2137880;83;21059;-81
2021/12/16 08:48:14;;;;;;;35.83;24.23;;;;;;;7.00;100.00;99967.53;2138037;83;21017;-81
2021/12/16 08:51:15;;;;;;;33.88;22.52;;;;;;;7.02;100.00;99973.91;2137932;83;21068;-81
2021/12/16 08:54:16;;;;;;;37.67;24.35;;;;;;;7.05;100.00;99968.47;2137928;83;20992;-81
2021/12/16 08:57:17;;;;;;;40.43;25.00;;;;;;;7.08;100.00;99976.02;2138391;83;21028;-80
2021/12/16 09:00:18;;;;;;;33.98;23.05;;;;;;;7.13;100.00;99979.05;2137541;83;21056;-81
2021/12/16 09:03:19;;;;;;;35.75;23.42;;;;;;;7.18;100.00;99980.00;2137626;83;21047;-81
2021/12/16 09:06:20;;;;;;;32.67;22.67;;;;;;;7.24;100.00;99972.98;2138004;83;20985;-81
2021/12/16 09:09:21;;;;;;;38.38;23.67;;;;;;;7.29;100.00;99966.89;2137955;83;21015;-81
2021/12/16 09:15:32;;;;;;;39.98;25.25;;;;;;;7.32;100.00;99964.05;2167764;82;21491;-81
2021/12/16 09:18:32;;;;;;;38.78;27.67;;;;;;;7.33;100.00;99963.92;2167632;82;21302;-81
2021/12/16 09:21:33;;;;;;;36.00;24.77;;;;;;;7.37;100.00;99954.05;2167528;82;21016;-82
2021/12/16 09:24:34;;;;;;;36.03;24.00;;;;;;;7.39;100.00;99958.17;2167647;82;21072;-82
2021/12/16 09:27:35;;;;;;;40.28;25.45;;;;;;;7.41;100.00;99951.08;2167551;82;21076;-82
2021/12/16 09:30:36;;;;;;;35.73;23.50;;;;;;;7.46;100.00;99950.67;2167741;82;21508;-82
2021/12/16 09:33:41;;;;;;;37.05;25.43;;;;;;;7.48;100.00;99955.75;2167385;82;21047;-81
2021/12/16 09:36:40;;;;;;;44.42;27.80;;;;;;;7.47;100.00;99958.84;2167450;82;21064;-81
2021/12/16 09:39:40;;;;;;;35.75;23.25;;;;;;;7.52;100.00;99959.29;2167742;82;21012;-82
2021/12/16 09:42:41;;;;;;;30.32;21.40;;;;;;;7.51;100.00;99958.95;2167524;82;21063;-81
2021/12/16 09:45:42;;;;;;;31.33;20.80;;;;;;;7.48;100.00;99951.36;2167704;82;20957;-82
2021/12/16 09:48:43;;;;;;;28.98;20.82;;;;;;;7.48;100.00;99949.23;2167632;82;21032;-82
2021/12/16 09:51:45;;;;;;;32.15;22.22;;;;;;;7.44;100.00;99944.77;2167734;82;20961;-81
2021/12/16 09:54:46;;;;;;;25.80;18.35;;;;;;;7.49;100.00;99943.06;2167591;82;20984;-81
2021/12/16 09:57:47;;;;;;;29.52;22.02;;;;;;;7.51;100.00;99938.09;2168084;82;21134;-81
2021/12/16 10:00:48;;;;;;;30.17;19.70;;;;;;;7.50;100.00;99946.02;2168100;82;20964;-81
2021/12/16 10:03:49;;;;;;;26.87;18.55;;;;;;;7.56;100.00;99942.42;2167496;82;21020;-81
2021/12/16 10:06:50;;;;;;;27.40;19.12;;;;;;;7.60;100.00;99930.80;2167729;82;20992;-81
2021/12/16 10:09:51;;;;;;;23.35;17.92;;;;;;;7.68;100.00;99932.72;2167675;82;21015;-81
2021/12/16 10:12:53;;;;;;;26.75;18.65;;;;;;;7.74;100.00;99928.78;2172148;82;20973;-81
2021/12/16 10:18:56;;;;;;;27.32;17.87;;;;;;;7.74;100.00;99932.69;2151564;83;21139;-81
2021/12/16 10:21:57;;;;;;;26.48;17.15;;;;;;;7.73;100.00;99929.73;2151756;83;21012;-82
2021/12/16 10:24:58;;;;;;;25.17;16.48;;;;;;;7.71;100.00;99925.97;2151646;83;21536;-82
2021/12/16 10:27:59;;;;;;;25.37;16.05;;;;;;;7.68;100.00;99917.94;2151948;83;21047;-82
2021/12/16 10:31:02;;;;;;;28.12;18.23;;;;;;;7.61;100.00;99918.11;2151621;83;21004;-82
2021/12/16 10:34:03;;;;;;;26.57;17.23;;;;;;;7.59;100.00;99909.59;2152163;83;21586;-81
2021/12/16 10:37:03;;;;;;;25.43;17.17;;;;;;;7.56;100.00;99910.32;2151747;83;21068;-81
2021/12/16 10:40:04;;;;;;;21.80;15.88;;;;;;;7.50;100.00;99912.14;2151721;83;21000;-81
2021/12/16 10:43:05;;;;;;;21.15;15.70;;;;;;;7.44;100.00;99916.11;2151931;83;21016;-81
2021/12/16 10:46:08;;;;;;;21.25;15.83;;;;;;;7.39;100.00;99911.75;2151765;83;21051;-81
2021/12/16 10:49:09;;;;;;;20.23;14.90;;;;;;;7.38;100.00;99912.70;2151949;83;21090;-81
2021/12/16 10:52:10;;;;;;;24.85;16.85;;;;;;;7.34;100.00;99910.85;2151748;83;20945;-81
2021/12/16 10:55:10;;;;;;;20.25;13.80;;;;;;;7.35;100.00;99912.50;2155913;82;20999;-81
2021/12/16 10:58:11;;;;;;;18.40;14.30;;;;;;;7.31;100.00;99911.09;2174778;82;21043;-82
2021/12/16 11:01:12;;;;;;;18.42;13.25;;;;;;;7.28;100.00;99902.72;2174432;82;21503;-81
2021/12/16 11:04:13;;;;;;;16.07;11.48;;;;;;;7.28;100.00;99899.64;2174287;82;21087;-82
2021/12/16 11:07:14;;;;;;;18.15;13.75;;;;;;;7.31;100.00;99898.55;2174683;82;20973;-82
2021/12/16 11:10:15;;;;;;;17.70;11.97;;;;;;;7.27;100.00;99903.20;2174617;82;21050;-81
2021/12/16 11:13:16;;;;;;;14.83;11.60;;;;;;;7.30;100.00;99885.17;2174276;82;21587;-82
2021/12/16 11:16:16;;;;;;;13.08;10.60;;;;;;;7.30;100.00;99895.59;2174691;82;21176;-81
2021/12/16 11:19:17;;;;;;;14.35;11.08;;;;;;;7.34;100.00;99886.10;2174809;82;21056;-81
2021/12/16 11:22:18;;;;;;;11.43;9.53;;;;;;;7.34;100.00;99892.61;2175031;82;20952;-82
2021/12/16 11:25:19;;;;;;;14.30;11.80;;;;;;;7.39;100.00;99886.52;2175222;82;21024;-82
2021/12/16 11:28:20;;;;;;;10.00;8.90;;;;;;;7.45;100.00;99898.69;2175119;82;20957;-84
2021/12/16 11:31:22;;;;;;;11.10;8.93;;;;;;;7.47;100.00;99887.66;2174961;82;21075;-81
2021/12/16 11:34:23;;;;;;;11.93;10.65;;;;;;;7.47;100.00;99900.20;2174862;82;21064;-82
2021/12/16 11:37:24;;;;;;;10.48;9.38;;;;;;;7.44;100.00;99913.50;2174813;82;21523;-81
2021/12/16 11:40:25;;;;;;;12.18;9.53;;;;;;;7.37;100.00;99902.77;2174614;82;21020;-82
2021/12/16 11:43:26;;;;;;;14.85;10.53;;;;;;;7.32;100.00;99901.52;2174503;82;21020;-82
2021/12/16 11:46:27;;;;;;;11.93;9.75;;;;;;;7.26;100.00;99908.55;2175055;82;21011;-82
2021/12/16 11:49:30;;;;;;;17.70;12.10;;;;;;;7.23;100.00;99916.63;2174858;82;20977;-81
2021/12/16 11:52:31;;;;;;;13.03;10.78;;;;;;;7.19;100.00;99906.92;2174636;82;21052;-81
2021/12/16 11:55:33;;;;;;;15.75;12.70;;;;;;;7.12;100.00;99910.99;2175083;82;21036;-81
2021/12/16 11:58:34;;;;;;;12.20;10.23;;;;;;;7.10;100.00;99907.69;2174931;82;21048;-81
2021/12/16 12:01:35;;;;;;;15.43;9.98;;;;;;;7.08;100.00;99905.22;2175238;82;21008;-81
2021/12/16 12:04:36;;;;;;;18.30;13.75;;;;;;;7.06;100.00;99908.92;2175106;82;21036;-81
2021/12/16 12:07:37;;;;;;;12.35;10.53;;;;;;;7.04;100.00;99904.29;2175060;82;21064;-80
2021/12/16 12:10:38;;;;;;;13.40;9.98;;;;;;;7.03;100.00;99903.47;2175016;82;21005;-80
2021/12/16 12:13:39;;;;;;;10.95;9.10;;;;;;;7.02;100.00;99889.28;2174767;82;21048;-81
2021/12/16 12:16:39;;;;;;;14.68;9.38;;;;;;;7.01;100.00;99900.17;2174977;82;21000;-80
2021/12/16 12:19:40;;;;;;;15.80;10.45;;;;;;;7.01;100.00;99895.44;2175110;82;21008;-80
2021/12/16 12:22:41;;;;;;;14.75;10.28;;;;;;;6.94;100.00;99890.39;2175182;82;21554;-81
2021/12/16 12:25:42;;;;;;;13.15;9.18;;;;;;;7.04;100.00;99900.38;2174971;82;20988;-81
2021/12/16 12:28:43;;;;;;;11.50;9.45;;;;;;;7.03;100.00;99907.85;2175070;82;21562;-80
2021/12/16 12:31:44;;;;;;;11.10;9.58;;;;;;;7.01;100.00;99904.55;2174958;82;20976;-81
2021/12/16 12:34:45;;;;;;;16.27;9.00;;;;;;;7.00;100.00;99890.71;2174552;81;21099;-80
2021/12/16 12:37:46;;;;;;;12.65;9.18;;;;;;;7.01;100.00;99879.34;2174736;82;21015;-81
2021/12/16 12:40:47;;;;;;;9.25;8.03;;;;;;;7.02;100.00;99886.19;2174855;82;22093;-82
2021/12/16 12:43:48;;;;;;;13.20;8.88;;;;;;;7.02;100.00;99883.59;2175136;82;21036;-80
2021/12/16 12:46:49;;;;;;;13.68;9.68;;;;;;;7.04;100.00;99896.03;2174740;82;21048;-82
2021/12/16 12:49:50;;;;;;;17.87;10.18;;;;;;;7.02;100.00;99889.28;2174854;82;21354;-81
2021/12/16 12:52:52;;;;;;;16.62;11.50;;;;;;;7.02;100.00;99873.17;2174927;82;21039;-80
2021/12/16 12:55:56;;;;;;;10.55;8.30;;;;;;;7.02;100.00;99843.22;2174840;82;21083;-81
2021/12/16 12:58:56;;;;;;;9.73;7.33;;;;;;;7.07;100.00;99850.66;2174555;82;21051;-81
2021/12/16 13:01:57;;;;;;;9.80;8.63;;;;;;;7.10;100.00;99850.39;2175146;82;21562;-81
2021/12/16 13:04:57;;;;;;;10.82;8.35;;;;;;;7.09;100.00;99856.08;2174834;82;21028;-83
2021/12/16 13:08:00;;;;;;;9.33;7.72;;;;;;;7.08;100.00;99858.82;2175161;82;20977;-82
2021/12/16 13:11:00;;;;;;;12.65;9.55;;;;;;;7.09;100.00;99852.17;2174920;82;21020;-82
2021/12/16 13:14:09;;;;;;;14.70;9.13;;;;;;;7.09;100.00;99844.36;2168747;82;21020;-81
2021/12/16 13:23:37;;;;;;;15.40;10.85;;;;;;;7.07;100.00;99867.59;2167687;82;21016;-82
2021/12/16 13:26:39;;;;;;;12.55;10.85;;;;;;;7.04;100.00;99859.56;2167583;82;21571;-81
2021/12/16 13:29:53;;;;;;;17.30;11.57;;;;;;;6.97;100.00;99868.84;2167517;82;20961;-82
2021/12/16 13:32:49;;;;;;;16.80;12.63;;;;;;;6.95;100.00;99866.85;2167418;82;21008;-82
2021/12/16 13:35:51;;;;;;;19.50;12.18;;;;;;;6.93;100.00;99870.03;2167432;82;21114;-81
2021/12/16 13:38:52;;;;;;;17.30;12.88;;;;;;;6.90;100.00;99871.60;2167519;82;21016;-80
2021/12/16 13:41:52;;;;;;;18.37;13.78;;;;;;;6.89;100.00;99868.66;2167688;82;21075;-80
2021/12/16 13:44:57;;;;;;;19.12;13.80;;;;;;;6.91;100.00;99874.55;2167695;82;21502;-81
2021/12/16 13:48:15;;;;;;;21.55;13.38;;;;;;;6.90;100.00;99882.50;2167524;82;21056;-80
2021/12/16 14:01:26;;;;;;;25.52;16.07;;;;;;;6.87;100.00;99892.70;2167302;82;21086;-82
2021/12/16 14:04:35;;;;;;;26.00;16.70;;;;;;;6.86;100.00;99896.26;2166864;82;20988;-82
2021/12/16 14:10:22;;;;;;;32.42;20.43;;;;;;;6.87;100.00;99895.30;2167632;82;20980;-81
2021/12/16 14:39:09;;;;;;;28.50;19.00;;;;;;;6.87;100.00;99885.37;2174836;81;21039;-82
2021/12/16 14:45:15;;;;;;;24.47;15.63;;;;;;;6.87;100.00;99871.05;2174469;82;21121;-83
2021/12/16 14:51:15;;;;;;;29.67;17.23;;;;;;;6.86;100.00;99888.45;2174810;82;21094;-83
2021/12/16 14:54:16;;;;;;;24.77;15.30;;;;;;;6.86;100.00;99894.95;2174709;81;21011;-82
2021/12/16 14:57:17;;;;;;;33.10;17.40;;;;;;;6.87;100.00;99895.30;2175001;82;21077;-84
2021/12/16 15:00:18;;;;;;;31.45;19.77;;;;;;;6.87;100.00;99886.19;2174839;82;20995;-83
2021/12/16 15:03:19;;;;;;;29.12;17.95;;;;;;;6.88;100.00;99895.64;2174721;81;21050;-84
2021/12/16 15:06:24;;;;;;;24.47;15.32;;;;;;;6.89;100.00;99911.62;2174995;82;20987;-89
2021/12/16 15:09:28;;;;;;;23.15;14.10;;;;;;;6.89;100.00;99912.09;2174727;81;20987;-86
2021/12/16 15:12:35;;;;;;;24.35;14.75;;;;;;;6.92;100.00;99902.72;2174361;81;21077;-85
2021/12/16 15:15:36;;;;;;;22.42;13.53;;;;;;;6.90;100.00;99909.83;2173094;82;21019;-83
2021/12/16 15:38:34;;;;;;;24.97;15.53;;;;;;;6.81;100.00;99914.02;2118913;83;21537;-85
2021/12/16 15:44:44;;;;;;;24.12;15.55;;;;;;;6.83;100.00;99931.64;2121737;84;21593;-84
2021/12/16 15:47:45;;;;;;;25.43;15.63;;;;;;;6.83;100.00;99927.73;2118617;84;21571;-83
2021/12/16 15:50:46;;;;;;;26.30;16.48;;;;;;;6.79;100.00;99934.98;2118405;84;21031;-83
2021/12/16 15:53:47;;;;;;;30.20;20.25;;;;;;;6.78;100.00;99933.33;2118286;84;21054;-84
2021/12/16 15:56:47;;;;;;;31.45;22.95;;;;;;;6.77;100.00;99935.59;2118644;84;21014;-86
2021/12/16 15:59:50;;;;;;;33.45;19.77;;;;;;;6.79;100.00;99932.86;2119158;84;20996;-85
2021/12/16 16:02:51;;;;;;;31.40;20.27;;;;;;;6.79;100.00;99942.79;2121299;84;21051;-84
2021/12/16 16:05:52;;;;;;;27.90;16.45;;;;;;;6.79;100.00;99941.97;2118637;84;21023;-87
2021/12/16 16:08:53;;;;;;;22.62;14.90;;;;;;;6.73;100.00;99931.56;2118380;84;21061;-85
2021/12/16 16:11:57;;;;;;;26.45;15.03;;;;;;;6.66;100.00;99943.42;2140318;82;21010;-85
2021/12/16 16:15:05;;;;;;;24.27;13.32;;;;;;;6.57;100.00;99948.07;2168959;81;21122;-86
2021/12/16 16:18:12;;;;;;;22.73;12.82;;;;;;;6.48;100.00;99942.30;2166242;82;21067;-86
2021/12/16 16:21:03;;;;;;;15.65;11.30;;;;;;;6.33;100.00;99926.17;2165306;82;21549;-86
2021/12/16 16:24:04;;;;;;;15.05;11.15;;;;;;;6.20;100.00;99925.00;2167727;82;20999;-87
2021/12/16 16:27:04;;;;;;;19.17;11.80;;;;;;;6.11;100.00;99917.94;2167972;82;21546;-86
2021/12/16 16:30:05;;;;;;;30.90;14.35;;;;;;;6.03;100.00;99923.38;2167763;82;21014;-86
2021/12/16 16:33:06;;;;;;;31.10;17.00;;;;;;;5.97;100.00;99954.61;2167994;82;21562;-85
2021/12/16 16:36:07;;;;;;;28.57;16.23;;;;;;;5.97;100.00;99978.02;2167840;82;21011;-85
2021/12/16 16:39:08;;;;;;;28.55;17.12;;;;;;;5.97;100.00;99986.63;2167928;82;20991;-84
2021/12/16 16:42:09;;;;;;;24.15;16.67;;;;;;;6.01;100.00;99988.98;2167914;82;20980;-85
2021/12/16 16:45:10;;;;;;;25.15;16.80;;;;;;;6.05;100.00;99992.55;2167731;82;21095;-85
2021/12/16 16:48:26;;;;;;;26.70;17.48;;;;;;;6.07;100.00;99995.84;2167451;82;21112;-81
2021/12/16 16:51:13;;;;;;;25.10;15.08;;;;;;;6.12;100.00;99998.07;2164244;82;21071;-84
2021/12/16 16:54:19;;;;;;;27.87;15.63;;;;;;;6.13;100.00;100003.66;2167750;82;21015;-84
2021/12/16 16:57:20;;;;;;;23.27;15.43;;;;;;;6.13;100.00;100007.55;2167761;82;21522;-85
2021/12/16 17:00:21;;;;;;;25.25;16.30;;;;;;;6.14;100.00;99999.63;2168043;82;21038;-85
2021/12/16 17:03:22;;;;;;;27.62;17.07;;;;;;;6.15;100.00;100003.05;2168205;82;20983;-83
2021/12/16 17:06:22;;;;;;;26.93;16.07;;;;;;;6.15;100.00;99997.86;2167652;82;21034;-84
2021/12/16 17:09:23;;;;;;;32.17;18.80;;;;;;;6.16;100.00;100002.11;2167706;82;21062;-84
2021/12/16 17:12:25;;;;;;;33.38;19.27;;;;;;;6.17;100.00;100006.36;2167735;82;20976;-84
2021/12/16 17:15:38;;;;;;;30.92;18.02;;;;;;;6.19;100.00;99995.35;2167527;82;21420;-84
2021/12/16 17:18:34;;;;;;;29.15;18.23;;;;;;;6.19;100.00;100007.88;2166608;82;21011;-84
2021/12/16 17:21:35;;;;;;;25.48;16.62;;;;;;;6.18;100.00;100013.20;2167813;82;21597;-84
2021/12/16 17:24:39;;;;;;;25.92;16.55;;;;;;;6.21;100.00;100015.56;2167438;82;21075;-85
2021/12/16 17:27:38;;;;;;;22.13;14.78;;;;;;;6.21;100.00;100009.05;2167094;81;21133;-85
2021/12/16 17:30:41;;;;;;;24.95;15.75;;;;;;;6.20;100.00;99992.63;2168358;82;21047;-87
2021/12/16 17:33:42;;;;;;;26.73;15.83;;;;;;;6.20;100.00;99983.52;2167832;82;20999;-86